In Rescue
 
Open Full Screen Window  High Contrast Mode
Wind Gusting 00 knots
08
March 19, 2019 7:11 PM EDT
Weather Information
Wind Direction
  270 °
Wind Speed
  08 kt (9 mph)
Wind Gust
  00 kt (0 mph)
Altimeter
30.25 in
Visibility
10 SM
Temperature
05° C
41° F
Dewpoint
-08° C
18° F
Humidity
39%
1hr Rain Fall
00.00 in.
24hr Rain Fall
00.00 in.
Sky Condition
Clear
VFR

METAR KRQB 192311Z AUTO 27008KT 10SM CLR 05/M08 A3025 RMK AO2 T00541082

FAA Disclaimer: The data displayed is for advisory purposes only and is not to be used for flight planning or operations.